sensor_id;sensor_type;location;lat;lon;timestamp;temperature;humidity
30999;DHT22;20549;50.042;8.968;2023-04-05T00:02:02;5.50;55.00
30999;DHT22;20549;50.042;8.968;2023-04-05T00:04:29;5.50;55.00
30999;DHT22;20549;50.042;8.968;2023-04-05T00:06:55;5.50;55.00
30999;DHT22;20549;50.042;8.968;2023-04-05T00:09:22;5.40;54.90
30999;DHT22;20549;50.042;8.968;2023-04-05T00:11:49;5.40;55.00
30999;DHT22;20549;50.042;8.968;2023-04-05T00:14:15;5.40;55.00
30999;DHT22;20549;50.042;8.968;2023-04-05T00:16:42;5.30;54.90
30999;DHT22;20549;50.042;8.968;2023-04-05T00:19:08;5.30;55.00
30999;DHT22;20549;50.042;8.968;2023-04-05T00:21:35;5.30;54.90
30999;DHT22;20549;50.042;8.968;2023-04-05T00:24:01;5.20;54.90
30999;DHT22;20549;50.042;8.968;2023-04-05T00:26:28;5.20;54.90
30999;DHT22;20549;50.042;8.968;2023-04-05T00:28:55;5.10;55.00
30999;DHT22;20549;50.042;8.968;2023-04-05T00:31:21;5.10;55.00
30999;DHT22;20549;50.042;8.968;2023-04-05T00:33:48;5.00;55.00
30999;DHT22;20549;50.042;8.968;2023-04-05T00:36:15;5.00;55.00
30999;DHT22;20549;50.042;8.968;2023-04-05T00:38:42;4.90;55.00
30999;DHT22;20549;50.042;8.968;2023-04-05T00:41:08;4.80;54.20
30999;DHT22;20549;50.042;8.968;2023-04-05T00:43:34;4.80;55.00
30999;DHT22;20549;50.042;8.968;2023-04-05T00:46:01;4.70;55.20
30999;DHT22;20549;50.042;8.968;2023-04-05T00:48:27;4.60;55.30
30999;DHT22;20549;50.042;8.968;2023-04-05T00:50:54;4.50;56.10
30999;DHT22;20549;50.042;8.968;2023-04-05T00:53:20;4.50;55.80
30999;DHT22;20549;50.042;8.968;2023-04-05T00:55:47;4.40;55.90
30999;DHT22;20549;50.042;8.968;2023-04-05T00:58:17;4.30;56.00
30999;DHT22;20549;50.042;8.968;2023-04-05T01:00:40;4.20;56.20
30999;DHT22;20549;50.042;8.968;2023-04-05T01:03:07;4.20;56.30
30999;DHT22;20549;50.042;8.968;2023-04-05T01:05:41;4.10;56.40
30999;DHT22;20549;50.042;8.968;2023-04-05T01:08:28;4.00;56.50
30999;DHT22;20549;50.042;8.968;2023-04-05T01:10:58;4.00;56.60
30999;DHT22;20549;50.042;8.968;2023-04-05T01:13:27;3.90;56.60
30999;DHT22;20549;50.042;8.968;2023-04-05T01:15:52;3.80;56.70
30999;DHT22;20549;50.042;8.968;2023-04-05T01:18:19;3.70;56.90
30999;DHT22;20549;50.042;8.968;2023-04-05T01:20:48;3.70;57.20
30999;DHT22;20549;50.042;8.968;2023-04-05T01:23:20;3.60;57.30
30999;DHT22;20549;50.042;8.968;2023-04-05T01:28:45;3.50;57.30
30999;DHT22;20549;50.042;8.968;2023-04-05T01:34:05;3.40;57.60
30999;DHT22;20549;50.042;8.968;2023-04-05T01:36:38;3.30;57.60
30999;DHT22;20549;50.042;8.968;2023-04-05T01:39:04;3.20;57.70
30999;DHT22;20549;50.042;8.968;2023-04-05T01:41:30;3.20;57.80
30999;DHT22;20549;50.042;8.968;2023-04-05T01:43:56;3.20;58.00
30999;DHT22;20549;50.042;8.968;2023-04-05T01:46:23;3.10;58.10
30999;DHT22;20549;50.042;8.968;2023-04-05T01:48:49;3.10;57.90
30999;DHT22;20549;50.042;8.968;2023-04-05T01:51:16;3.10;58.30
30999;DHT22;20549;50.042;8.968;2023-04-05T01:53:42;3.00;58.30
30999;DHT22;20549;50.042;8.968;2023-04-05T01:56:09;3.00;58.50
30999;DHT22;20549;50.042;8.968;2023-04-05T01:58:36;3.00;58.60
30999;DHT22;20549;50.042;8.968;2023-04-05T02:01:02;3.00;58.70
30999;DHT22;20549;50.042;8.968;2023-04-05T02:03:29;3.00;58.80
30999;DHT22;20549;50.042;8.968;2023-04-05T02:05:56;3.00;58.90
30999;DHT22;20549;50.042;8.968;2023-04-05T02:08:22;2.90;59.00
30999;DHT22;20549;50.042;8.968;2023-04-05T02:10:51;3.00;59.10
30999;DHT22;20549;50.042;8.968;2023-04-05T02:13:15;2.90;59.20
30999;DHT22;20549;50.042;8.968;2023-04-05T02:15:46;3.00;59.20
30999;DHT22;20549;50.042;8.968;2023-04-05T02:18:08;2.90;59.20
30999;DHT22;20549;50.042;8.968;2023-04-05T02:20:35;2.90;59.10
30999;DHT22;20549;50.042;8.968;2023-04-05T02:23:01;2.90;59.20
30999;DHT22;20549;50.042;8.968;2023-04-05T02:25:28;2.90;59.30
30999;DHT22;20549;50.042;8.968;2023-04-05T02:27:55;2.90;59.20
30999;DHT22;20549;50.042;8.968;2023-04-05T02:30:21;2.80;59.30
30999;DHT22;20549;50.042;8.968;2023-04-05T02:32:48;2.80;59.40
30999;DHT22;20549;50.042;8.968;2023-04-05T02:35:14;2.70;59.40
30999;DHT22;20549;50.042;8.968;2023-04-05T02:37:41;2.70;59.60
30999;DHT22;20549;50.042;8.968;2023-04-05T02:40:10;2.60;59.60
30999;DHT22;20549;50.042;8.968;2023-04-05T02:42:34;2.60;59.60
30999;DHT22;20549;50.042;8.968;2023-04-05T02:45:01;2.50;59.70
30999;DHT22;20549;50.042;8.968;2023-04-05T02:47:27;2.50;59.90
30999;DHT22;20549;50.042;8.968;2023-04-05T02:49:54;2.40;59.90
30999;DHT22;20549;50.042;8.968;2023-04-05T02:52:20;2.40;60.00
30999;DHT22;20549;50.042;8.968;2023-04-05T02:54:47;2.40;60.10
30999;DHT22;20549;50.042;8.968;2023-04-05T02:57:14;2.30;60.20
30999;DHT22;20549;50.042;8.968;2023-04-05T02:59:40;2.30;60.50
30999;DHT22;20549;50.042;8.968;2023-04-05T03:02:08;2.20;60.50
30999;DHT22;20549;50.042;8.968;2023-04-05T03:04:33;2.20;60.70
30999;DHT22;20549;50.042;8.968;2023-04-05T03:07:00;2.20;60.90
30999;DHT22;20549;50.042;8.968;2023-04-05T03:09:27;2.10;60.90
30999;DHT22;20549;50.042;8.968;2023-04-05T03:11:53;2.10;60.90
30999;DHT22;20549;50.042;8.968;2023-04-05T03:14:20;2.10;61.00
30999;DHT22;20549;50.042;8.968;2023-04-05T03:16:46;2.00;61.00
30999;DHT22;20549;50.042;8.968;2023-04-05T03:19:13;2.00;61.00
30999;DHT22;20549;50.042;8.968;2023-04-05T03:21:39;2.00;61.10
30999;DHT22;20549;50.042;8.968;2023-04-05T03:24:06;1.90;61.00
30999;DHT22;20549;50.042;8.968;2023-04-05T03:26:33;1.90;61.10
30999;DHT22;20549;50.042;8.968;2023-04-05T03:28:59;1.80;61.00
30999;DHT22;20549;50.042;8.968;2023-04-05T03:31:26;1.80;61.20
30999;DHT22;20549;50.042;8.968;2023-04-05T03:33:52;1.70;61.30
30999;DHT22;20549;50.042;8.968;2023-04-05T03:36:19;1.70;61.30
30999;DHT22;20549;50.042;8.968;2023-04-05T03:38:46;1.70;61.50
30999;DHT22;20549;50.042;8.968;2023-04-05T03:41:12;1.60;61.30
30999;DHT22;20549;50.042;8.968;2023-04-05T03:43:39;1.60;61.40
30999;DHT22;20549;50.042;8.968;2023-04-05T03:46:05;1.60;61.50
30999;DHT22;20549;50.042;8.968;2023-04-05T03:48:32;1.50;61.50
30999;DHT22;20549;50.042;8.968;2023-04-05T03:50:59;1.50;61.70
30999;DHT22;20549;50.042;8.968;2023-04-05T03:53:25;1.50;61.80
30999;DHT22;20549;50.042;8.968;2023-04-05T03:55:52;1.50;61.80
30999;DHT22;20549;50.042;8.968;2023-04-05T03:58:18;1.40;61.80
30999;DHT22;20549;50.042;8.968;2023-04-05T04:00:45;1.40;61.80
30999;DHT22;20549;50.042;8.968;2023-04-05T04:03:11;1.40;61.80
30999;DHT22;20549;50.042;8.968;2023-04-05T04:05:38;1.30;61.80
30999;DHT22;20549;50.042;8.968;2023-04-05T04:08:05;1.30;61.90
30999;DHT22;20549;50.042;8.968;2023-04-05T04:10:32;1.20;61.70
30999;DHT22;20549;50.042;8.968;2023-04-05T04:12:58;1.20;61.80
30999;DHT22;20549;50.042;8.968;2023-04-05T04:15:24;1.10;61.70
30999;DHT22;20549;50.042;8.968;2023-04-05T04:17:51;1.10;61.80
30999;DHT22;20549;50.042;8.968;2023-04-05T04:20:18;1.10;61.90
30999;DHT22;20549;50.042;8.968;2023-04-05T04:22:44;1.00;61.90
30999;DHT22;20549;50.042;8.968;2023-04-05T04:25:11;1.00;62.10
30999;DHT22;20549;50.042;8.968;2023-04-05T04:27:38;1.00;62.20
30999;DHT22;20549;50.042;8.968;2023-04-05T04:30:07;0.90;62.30
30999;DHT22;20549;50.042;8.968;2023-04-05T04:32:33;0.80;62.30
30999;DHT22;20549;50.042;8.968;2023-04-05T04:35:21;0.80;62.30
30999;DHT22;20549;50.042;8.968;2023-04-05T04:37:49;0.80;62.30
30999;DHT22;20549;50.042;8.968;2023-04-05T04:40:14;0.80;62.50
30999;DHT22;20549;50.042;8.968;2023-04-05T04:42:40;0.70;62.50
30999;DHT22;20549;50.042;8.968;2023-04-05T04:45:07;0.70;62.60
30999;DHT22;20549;50.042;8.968;2023-04-05T04:47:33;0.60;62.50
30999;DHT22;20549;50.042;8.968;2023-04-05T04:50:00;0.60;63.40
30999;DHT22;20549;50.042;8.968;2023-04-05T04:52:26;0.60;62.90
30999;DHT22;20549;50.042;8.968;2023-04-05T04:54:53;0.60;63.10
30999;DHT22;20549;50.042;8.968;2023-04-05T04:57:20;0.60;63.30
30999;DHT22;20549;50.042;8.968;2023-04-05T04:59:46;0.60;63.30
30999;DHT22;20549;50.042;8.968;2023-04-05T05:02:13;0.60;63.40
30999;DHT22;20549;50.042;8.968;2023-04-05T05:04:39;0.60;63.50
30999;DHT22;20549;50.042;8.968;2023-04-05T05:07:06;0.60;63.60
30999;DHT22;20549;50.042;8.968;2023-04-05T05:09:33;0.60;63.70
30999;DHT22;20549;50.042;8.968;2023-04-05T05:11:59;0.60;63.70
30999;DHT22;20549;50.042;8.968;2023-04-05T05:14:26;0.70;64.20
30999;DHT22;20549;50.042;8.968;2023-04-05T05:16:52;0.80;64.60
30999;DHT22;20549;50.042;8.968;2023-04-05T05:19:19;0.90;65.20
30999;DHT22;20549;50.042;8.968;2023-04-05T05:21:46;1.20;65.80
30999;DHT22;20549;50.042;8.968;2023-04-05T05:24:12;1.50;66.20
30999;DHT22;20549;50.042;8.968;2023-04-05T05:26:39;1.80;66.20
30999;DHT22;20549;50.042;8.968;2023-04-05T05:29:05;2.10;66.10
30999;DHT22;20549;50.042;8.968;2023-04-05T05:31:32;2.50;65.80
30999;DHT22;20549;50.042;8.968;2023-04-05T05:33:58;2.80;65.70
30999;DHT22;20549;50.042;8.968;2023-04-05T05:36:25;3.20;65.70
30999;DHT22;20549;50.042;8.968;2023-04-05T05:38:52;3.70;65.90
30999;DHT22;20549;50.042;8.968;2023-04-05T05:41:18;4.20;65.80
30999;DHT22;20549;50.042;8.968;2023-04-05T05:43:45;4.70;65.70
30999;DHT22;20549;50.042;8.968;2023-04-05T05:46:11;5.30;65.50
30999;DHT22;20549;50.042;8.968;2023-04-05T05:48:38;6.00;65.20
30999;DHT22;20549;50.042;8.968;2023-04-05T05:51:05;6.60;64.70
30999;DHT22;20549;50.042;8.968;2023-04-05T05:53:31;7.30;64.20
30999;DHT22;20549;50.042;8.968;2023-04-05T05:55:58;8.00;63.70
30999;DHT22;20549;50.042;8.968;2023-04-05T05:58:24;8.70;63.00
30999;DHT22;20549;50.042;8.968;2023-04-05T06:00:51;9.40;62.20
30999;DHT22;20549;50.042;8.968;2023-04-05T06:03:17;10.20;61.40
30999;DHT22;20549;50.042;8.968;2023-04-05T06:05:51;10.90;60.30
30999;DHT22;20549;50.042;8.968;2023-04-05T06:08:17;11.60;59.70
30999;DHT22;20549;50.042;8.968;2023-04-05T06:10:43;12.30;58.90
30999;DHT22;20549;50.042;8.968;2023-04-05T06:13:10;12.90;58.20
30999;DHT22;20549;50.042;8.968;2023-04-05T06:15:36;13.50;57.40
30999;DHT22;20549;50.042;8.968;2023-04-05T06:18:03;14.10;56.60
30999;DHT22;20549;50.042;8.968;2023-04-05T06:20:30;14.70;55.80
30999;DHT22;20549;50.042;8.968;2023-04-05T06:22:56;15.20;55.20
30999;DHT22;20549;50.042;8.968;2023-04-05T06:25:23;15.80;54.70
30999;DHT22;20549;50.042;8.968;2023-04-05T06:27:49;16.30;54.20
30999;DHT22;20549;50.042;8.968;2023-04-05T06:30:16;16.90;53.50
30999;DHT22;20549;50.042;8.968;2023-04-05T06:32:42;17.40;52.60
30999;DHT22;20549;50.042;8.968;2023-04-05T06:35:09;18.00;51.90
30999;DHT22;20549;50.042;8.968;2023-04-05T06:37:36;18.50;51.20
30999;DHT22;20549;50.042;8.968;2023-04-05T06:40:02;18.90;50.60
30999;DHT22;20549;50.042;8.968;2023-04-05T06:42:29;19.40;50.10
30999;DHT22;20549;50.042;8.968;2023-04-05T06:44:55;19.90;49.40
30999;DHT22;20549;50.042;8.968;2023-04-05T06:47:22;20.40;48.80
30999;DHT22;20549;50.042;8.968;2023-04-05T06:49:49;20.90;48.30
30999;DHT22;20549;50.042;8.968;2023-04-05T06:52:15;21.40;47.80
30999;DHT22;20549;50.042;8.968;2023-04-05T06:54:42;21.80;47.30
30999;DHT22;20549;50.042;8.968;2023-04-05T06:57:08;22.20;46.50
30999;DHT22;20549;50.042;8.968;2023-04-05T06:59:35;22.60;45.90
30999;DHT22;20549;50.042;8.968;2023-04-05T07:02:02;23.00;45.50
30999;DHT22;20549;50.042;8.968;2023-04-05T07:04:28;23.30;44.90
30999;DHT22;20549;50.042;8.968;2023-04-05T07:06:55;23.70;44.40
30999;DHT22;20549;50.042;8.968;2023-04-05T07:09:21;24.00;43.90
30999;DHT22;20549;50.042;8.968;2023-04-05T07:11:48;24.40;43.50
30999;DHT22;20549;50.042;8.968;2023-04-05T07:14:14;24.70;42.30
30999;DHT22;20549;50.042;8.968;2023-04-05T07:16:41;25.00;41.70
30999;DHT22;20549;50.042;8.968;2023-04-05T07:19:08;25.30;41.30
30999;DHT22;20549;50.042;8.968;2023-04-05T07:21:34;25.50;40.50
30999;DHT22;20549;50.042;8.968;2023-04-05T07:24:01;25.60;40.40
30999;DHT22;20549;50.042;8.968;2023-04-05T07:26:27;25.80;40.20
30999;DHT22;20549;50.042;8.968;2023-04-05T07:28:54;26.00;39.60
30999;DHT22;20549;50.042;8.968;2023-04-05T07:31:21;26.30;39.60
30999;DHT22;20549;50.042;8.968;2023-04-05T07:33:47;26.50;39.20
30999;DHT22;20549;50.042;8.968;2023-04-05T07:36:14;26.70;38.80
30999;DHT22;20549;50.042;8.968;2023-04-05T07:38:40;26.90;38.20
30999;DHT22;20549;50.042;8.968;2023-04-05T07:41:07;27.10;38.50
30999;DHT22;20549;50.042;8.968;2023-04-05T07:43:34;27.30;37.60
30999;DHT22;20549;50.042;8.968;2023-04-05T07:46:01;27.40;37.30
30999;DHT22;20549;50.042;8.968;2023-04-05T07:48:27;27.60;37.30
30999;DHT22;20549;50.042;8.968;2023-04-05T07:50:53;27.90;36.90
30999;DHT22;20549;50.042;8.968;2023-04-05T07:53:20;28.10;36.40
30999;DHT22;20549;50.042;8.968;2023-04-05T07:55:46;28.30;36.20
30999;DHT22;20549;50.042;8.968;2023-04-05T07:58:13;28.60;35.90
30999;DHT22;20549;50.042;8.968;2023-04-05T08:00:40;28.80;35.80
30999;DHT22;20549;50.042;8.968;2023-04-05T08:03:06;29.00;35.50
30999;DHT22;20549;50.042;8.968;2023-04-05T08:05:33;29.30;35.00
30999;DHT22;20549;50.042;8.968;2023-04-05T08:07:59;29.50;34.70
30999;DHT22;20549;50.042;8.968;2023-04-05T08:10:26;29.80;34.20
30999;DHT22;20549;50.042;8.968;2023-04-05T08:12:53;30.00;33.40
30999;DHT22;20549;50.042;8.968;2023-04-05T08:15:19;30.10;32.70
30999;DHT22;20549;50.042;8.968;2023-04-05T08:17:46;30.20;32.70
30999;DHT22;20549;50.042;8.968;2023-04-05T08:20:12;30.20;32.10
30999;DHT22;20549;50.042;8.968;2023-04-05T08:22:39;30.20;31.70
30999;DHT22;20549;50.042;8.968;2023-04-05T08:25:06;30.10;31.70
30999;DHT22;20549;50.042;8.968;2023-04-05T08:27:32;30.00;31.60
30999;DHT22;20549;50.042;8.968;2023-04-05T08:29:59;30.00;31.50
30999;DHT22;20549;50.042;8.968;2023-04-05T08:32:25;30.00;31.30
30999;DHT22;20549;50.042;8.968;2023-04-05T08:34:52;30.00;31.40
30999;DHT22;20549;50.042;8.968;2023-04-05T08:37:19;30.10;31.30
30999;DHT22;20549;50.042;8.968;2023-04-05T08:39:45;30.20;30.70
30999;DHT22;20549;50.042;8.968;2023-04-05T08:42:22;30.20;30.40
30999;DHT22;20549;50.042;8.968;2023-04-05T08:44:41;30.20;29.90
30999;DHT22;20549;50.042;8.968;2023-04-05T08:47:08;30.10;29.90
30999;DHT22;20549;50.042;8.968;2023-04-05T08:49:34;30.00;29.90
30999;DHT22;20549;50.042;8.968;2023-04-05T08:52:01;30.00;30.00
30999;DHT22;20549;50.042;8.968;2023-04-05T08:54:28;30.10;30.00
30999;DHT22;20549;50.042;8.968;2023-04-05T08:56:54;30.10;29.90
30999;DHT22;20549;50.042;8.968;2023-04-05T08:59:21;30.30;30.00
30999;DHT22;20549;50.042;8.968;2023-04-05T09:01:47;30.50;30.30
30999;DHT22;20549;50.042;8.968;2023-04-05T09:04:19;30.60;29.60
30999;DHT22;20549;50.042;8.968;2023-04-05T09:06:44;30.80;29.20
30999;DHT22;20549;50.042;8.968;2023-04-05T09:09:10;30.80;28.90
30999;DHT22;20549;50.042;8.968;2023-04-05T09:11:37;30.80;28.90
30999;DHT22;20549;50.042;8.968;2023-04-05T09:14:04;30.70;28.70
30999;DHT22;20549;50.042;8.968;2023-04-05T09:16:33;30.70;28.50
30999;DHT22;20549;50.042;8.968;2023-04-05T09:18:56;30.70;28.50
30999;DHT22;20549;50.042;8.968;2023-04-05T09:21:23;30.70;28.50
30999;DHT22;20549;50.042;8.968;2023-04-05T09:23:51;30.70;28.40
30999;DHT22;20549;50.042;8.968;2023-04-05T09:26:17;30.70;28.40
30999;DHT22;20549;50.042;8.968;2023-04-05T09:28:43;30.70;28.40
30999;DHT22;20549;50.042;8.968;2023-04-05T09:31:23;30.80;28.20
30999;DHT22;20549;50.042;8.968;2023-04-05T09:33:36;30.80;28.20
30999;DHT22;20549;50.042;8.968;2023-04-05T09:36:03;30.80;28.10
30999;DHT22;20549;50.042;8.968;2023-04-05T09:38:42;30.80;28.10
30999;DHT22;20549;50.042;8.968;2023-04-05T09:41:08;30.80;27.80
30999;DHT22;20549;50.042;8.968;2023-04-05T09:43:35;30.80;27.70
30999;DHT22;20549;50.042;8.968;2023-04-05T09:46:01;30.70;27.40
30999;DHT22;20549;50.042;8.968;2023-04-05T09:48:46;30.50;27.00
30999;DHT22;20549;50.042;8.968;2023-04-05T09:51:16;30.20;26.80
30999;DHT22;20549;50.042;8.968;2023-04-05T09:56:29;29.30;26.40
30999;DHT22;20549;50.042;8.968;2023-04-05T09:58:58;28.60;26.30
30999;DHT22;20549;50.042;8.968;2023-04-05T10:01:30;27.90;26.30
30999;DHT22;20549;50.042;8.968;2023-04-05T10:03:57;27.20;26.30
30999;DHT22;20549;50.042;8.968;2023-04-05T10:06:33;26.50;26.60
30999;DHT22;20549;50.042;8.968;2023-04-05T10:08:50;25.80;26.60
30999;DHT22;20549;50.042;8.968;2023-04-05T10:11:17;25.20;26.70
30999;DHT22;20549;50.042;8.968;2023-04-05T10:13:44;24.60;26.90
30999;DHT22;20549;50.042;8.968;2023-04-05T10:16:10;24.00;27.20
30999;DHT22;20549;50.042;8.968;2023-04-05T10:18:42;23.40;27.40
30999;DHT22;20549;50.042;8.968;2023-04-05T10:21:06;23.00;27.50
30999;DHT22;20549;50.042;8.968;2023-04-05T10:23:33;22.50;27.70
30999;DHT22;20549;50.042;8.968;2023-04-05T10:26:17;22.10;27.90
30999;DHT22;20549;50.042;8.968;2023-04-05T10:28:46;21.70;28.00
30999;DHT22;20549;50.042;8.968;2023-04-05T10:31:22;21.30;28.10
30999;DHT22;20549;50.042;8.968;2023-04-05T10:33:46;20.80;28.20
30999;DHT22;20549;50.042;8.968;2023-04-05T10:36:38;20.50;28.20
30999;DHT22;20549;50.042;8.968;2023-04-05T10:39:03;20.00;28.30
30999;DHT22;20549;50.042;8.968;2023-04-05T10:41:44;19.50;28.50
30999;DHT22;20549;50.042;8.968;2023-04-05T10:44:08;19.10;28.60
30999;DHT22;20549;50.042;8.968;2023-04-05T10:46:34;18.60;28.80
30999;DHT22;20549;50.042;8.968;2023-04-05T10:51:52;17.80;29.30
30999;DHT22;20549;50.042;8.968;2023-04-05T10:54:18;17.40;29.40
30999;DHT22;20549;50.042;8.968;2023-04-05T10:56:45;17.10;29.70
30999;DHT22;20549;50.042;8.968;2023-04-05T10:59:11;16.70;30.00
30999;DHT22;20549;50.042;8.968;2023-04-05T11:01:38;16.40;30.60
30999;DHT22;20549;50.042;8.968;2023-04-05T11:04:11;16.20;30.20
30999;DHT22;20549;50.042;8.968;2023-04-05T11:06:37;15.90;30.50
30999;DHT22;20549;50.042;8.968;2023-04-05T11:09:13;15.70;31.00
30999;DHT22;20549;50.042;8.968;2023-04-05T11:11:42;15.50;31.30
30999;DHT22;20549;50.042;8.968;2023-04-05T11:14:24;15.40;31.50
30999;DHT22;20549;50.042;8.968;2023-04-05T11:16:53;15.30;31.50
30999;DHT22;20549;50.042;8.968;2023-04-05T11:19:19;15.20;31.60
30999;DHT22;20549;50.042;8.968;2023-04-05T11:21:46;15.00;31.60
30999;DHT22;20549;50.042;8.968;2023-04-05T11:24:13;14.90;31.70
30999;DHT22;20549;50.042;8.968;2023-04-05T11:29:06;14.60;32.00
30999;DHT22;20549;50.042;8.968;2023-04-05T11:31:32;14.50;32.20
30999;DHT22;20549;50.042;8.968;2023-04-05T11:33:59;14.40;32.30
30999;DHT22;20549;50.042;8.968;2023-04-05T11:36:34;14.30;32.40
30999;DHT22;20549;50.042;8.968;2023-04-05T11:42:02;14.10;32.60
30999;DHT22;20549;50.042;8.968;2023-04-05T11:44:44;14.00;32.80
30999;DHT22;20549;50.042;8.968;2023-04-05T11:47:09;13.90;33.00
30999;DHT22;20549;50.042;8.968;2023-04-05T11:49:36;13.80;33.00
30999;DHT22;20549;50.042;8.968;2023-04-05T11:52:12;13.80;33.10
30999;DHT22;20549;50.042;8.968;2023-04-05T11:54:35;13.70;33.10
30999;DHT22;20549;50.042;8.968;2023-04-05T11:57:02;13.70;33.20
30999;DHT22;20549;50.042;8.968;2023-04-05T11:59:29;13.60;33.30
30999;DHT22;20549;50.042;8.968;2023-04-05T12:01:58;13.60;33.60
30999;DHT22;20549;50.042;8.968;2023-04-05T12:04:24;13.60;34.10
30999;DHT22;20549;50.042;8.968;2023-04-05T12:09:17;13.60;34.20
30999;DHT22;20549;50.042;8.968;2023-04-05T12:11:44;13.60;34.20
30999;DHT22;20549;50.042;8.968;2023-04-05T12:14:10;13.70;34.20
30999;DHT22;20549;50.042;8.968;2023-04-05T12:16:37;13.80;34.30
30999;DHT22;20549;50.042;8.968;2023-04-05T12:19:04;13.90;34.30
30999;DHT22;20549;50.042;8.968;2023-04-05T12:21:30;13.90;34.10
30999;DHT22;20549;50.042;8.968;2023-04-05T12:23:57;14.00;34.00
30999;DHT22;20549;50.042;8.968;2023-04-05T12:26:23;14.00;34.00
30999;DHT22;20549;50.042;8.968;2023-04-05T12:34:01;14.00;33.80
30999;DHT22;20549;50.042;8.968;2023-04-05T12:36:28;14.00;33.80
30999;DHT22;20549;50.042;8.968;2023-04-05T12:38:54;13.90;33.80
30999;DHT22;20549;50.042;8.968;2023-04-05T12:41:27;13.90;33.90
30999;DHT22;20549;50.042;8.968;2023-04-05T12:43:53;13.80;33.90
30999;DHT22;20549;50.042;8.968;2023-04-05T12:46:20;13.80;33.70
30999;DHT22;20549;50.042;8.968;2023-04-05T12:48:49;13.70;33.70
30999;DHT22;20549;50.042;8.968;2023-04-05T12:51:14;13.70;33.60
30999;DHT22;20549;50.042;8.968;2023-04-05T12:53:43;13.60;33.70
30999;DHT22;20549;50.042;8.968;2023-04-05T12:56:06;13.60;33.90
30999;DHT22;20549;50.042;8.968;2023-04-05T12:58:36;13.60;34.00
30999;DHT22;20549;50.042;8.968;2023-04-05T13:00:59;13.60;34.20
30999;DHT22;20549;50.042;8.968;2023-04-05T13:03:26;13.50;34.10
30999;DHT22;20549;50.042;8.968;2023-04-05T13:05:53;13.50;34.10
30999;DHT22;20549;50.042;8.968;2023-04-05T13:08:19;13.50;34.20
30999;DHT22;20549;50.042;8.968;2023-04-05T13:10:46;13.40;34.00
30999;DHT22;20549;50.042;8.968;2023-04-05T13:13:13;13.40;34.10
30999;DHT22;20549;50.042;8.968;2023-04-05T13:15:39;13.40;34.10
30999;DHT22;20549;50.042;8.968;2023-04-05T13:18:06;13.40;34.20
30999;DHT22;20549;50.042;8.968;2023-04-05T13:20:33;13.30;34.30
30999;DHT22;20549;50.042;8.968;2023-04-05T13:22:59;13.30;34.40
30999;DHT22;20549;50.042;8.968;2023-04-05T13:25:25;13.30;34.40
30999;DHT22;20549;50.042;8.968;2023-04-05T13:27:52;13.30;34.50
30999;DHT22;20549;50.042;8.968;2023-04-05T13:30:19;13.30;34.60
30999;DHT22;20549;50.042;8.968;2023-04-05T13:32:45;13.30;34.60
30999;DHT22;20549;50.042;8.968;2023-04-05T13:35:12;13.30;34.60
30999;DHT22;20549;50.042;8.968;2023-04-05T13:37:38;13.30;34.50
30999;DHT22;20549;50.042;8.968;2023-04-05T13:40:06;13.30;34.50
30999;DHT22;20549;50.042;8.968;2023-04-05T13:42:33;13.40;34.50
30999;DHT22;20549;50.042;8.968;2023-04-05T13:44:59;13.30;34.40
30999;DHT22;20549;50.042;8.968;2023-04-05T13:47:26;13.30;34.30
30999;DHT22;20549;50.042;8.968;2023-04-05T13:49:52;13.30;34.30
30999;DHT22;20549;50.042;8.968;2023-04-05T13:52:19;13.30;34.40
30999;DHT22;20549;50.042;8.968;2023-04-05T13:54:46;13.30;34.60
30999;DHT22;20549;50.042;8.968;2023-04-05T13:57:12;13.30;34.70
30999;DHT22;20549;50.042;8.968;2023-04-05T13:59:39;13.30;34.70
30999;DHT22;20549;50.042;8.968;2023-04-05T14:02:06;13.30;34.60
30999;DHT22;20549;50.042;8.968;2023-04-05T14:04:32;13.30;34.70
30999;DHT22;20549;50.042;8.968;2023-04-05T14:06:59;13.30;34.90
30999;DHT22;20549;50.042;8.968;2023-04-05T14:09:25;13.40;35.10
30999;DHT22;20549;50.042;8.968;2023-04-05T14:11:52;13.40;35.00
30999;DHT22;20549;50.042;8.968;2023-04-05T14:14:18;13.40;35.00
30999;DHT22;20549;50.042;8.968;2023-04-05T14:16:45;13.40;35.10
30999;DHT22;20549;50.042;8.968;2023-04-05T14:19:12;13.50;35.10
30999;DHT22;20549;50.042;8.968;2023-04-05T14:21:38;13.50;35.00
30999;DHT22;20549;50.042;8.968;2023-04-05T14:24:05;13.50;35.00
30999;DHT22;20549;50.042;8.968;2023-04-05T14:26:31;13.60;35.00
30999;DHT22;20549;50.042;8.968;2023-04-05T14:28:58;13.60;34.90
30999;DHT22;20549;50.042;8.968;2023-04-05T14:31:24;13.60;34.70
30999;DHT22;20549;50.042;8.968;2023-04-05T14:33:51;13.60;34.80
30999;DHT22;20549;50.042;8.968;2023-04-05T14:36:18;13.60;34.80
30999;DHT22;20549;50.042;8.968;2023-04-05T14:38:44;13.60;34.70
30999;DHT22;20549;50.042;8.968;2023-04-05T14:41:11;13.60;34.60
30999;DHT22;20549;50.042;8.968;2023-04-05T14:43:37;13.60;34.60
30999;DHT22;20549;50.042;8.968;2023-04-05T14:46:04;13.60;34.50
30999;DHT22;20549;50.042;8.968;2023-04-05T14:48:31;13.60;34.60
30999;DHT22;20549;50.042;8.968;2023-04-05T14:50:57;13.50;34.50
30999;DHT22;20549;50.042;8.968;2023-04-05T14:53:24;13.50;34.40
30999;DHT22;20549;50.042;8.968;2023-04-05T14:55:51;13.50;34.40
30999;DHT22;20549;50.042;8.968;2023-04-05T14:58:17;13.50;34.40
30999;DHT22;20549;50.042;8.968;2023-04-05T15:00:45;13.40;34.30
30999;DHT22;20549;50.042;8.968;2023-04-05T15:03:10;13.40;34.20
30999;DHT22;20549;50.042;8.968;2023-04-05T15:05:37;13.40;33.50
30999;DHT22;20549;50.042;8.968;2023-04-05T15:08:03;13.40;34.00
30999;DHT22;20549;50.042;8.968;2023-04-05T15:10:30;13.40;33.40
30999;DHT22;20549;50.042;8.968;2023-04-05T15:12:56;13.30;34.10
30999;DHT22;20549;50.042;8.968;2023-04-05T15:15:23;13.30;34.20
30999;DHT22;20549;50.042;8.968;2023-04-05T15:17:50;13.30;34.20
30999;DHT22;20549;50.042;8.968;2023-04-05T15:20:16;13.30;34.20
30999;DHT22;20549;50.042;8.968;2023-04-05T15:22:43;13.30;34.10
30999;DHT22;20549;50.042;8.968;2023-04-05T15:25:09;13.30;34.00
30999;DHT22;20549;50.042;8.968;2023-04-05T15:27:36;13.30;34.00
30999;DHT22;20549;50.042;8.968;2023-04-05T15:30:03;13.20;33.90
30999;DHT22;20549;50.042;8.968;2023-04-05T15:32:29;13.20;33.80
30999;DHT22;20549;50.042;8.968;2023-04-05T15:34:56;13.20;33.90
30999;DHT22;20549;50.042;8.968;2023-04-05T15:37:22;13.10;34.20
30999;DHT22;20549;50.042;8.968;2023-04-05T15:39:49;13.10;34.00
30999;DHT22;20549;50.042;8.968;2023-04-05T15:42:16;13.10;34.00
30999;DHT22;20549;50.042;8.968;2023-04-05T15:44:42;13.10;34.00
30999;DHT22;20549;50.042;8.968;2023-04-05T15:47:09;13.00;34.00
30999;DHT22;20549;50.042;8.968;2023-04-05T15:49:35;13.00;34.00
30999;DHT22;20549;50.042;8.968;2023-04-05T15:52:02;13.00;34.00
30999;DHT22;20549;50.042;8.968;2023-04-05T15:54:28;13.00;34.00
30999;DHT22;20549;50.042;8.968;2023-04-05T15:56:55;13.00;34.00
30999;DHT22;20549;50.042;8.968;2023-04-05T15:59:22;13.00;34.00
30999;DHT22;20549;50.042;8.968;2023-04-05T16:01:48;12.90;34.00